Airfield :
LOGIN :

Register | Disclaimer

   EN    FR    IT 

 










Legend :    VFR   Marginal VFR   IFR   Intensive IFR   Very Intensive IFR
Visi :
Ceiling :
>= 8 km
>= 3000ft
5 to 8 km
1000 to 3000 ft
1500m to 5 km
500 to 1000 ft
800 to 1500m
200 to 500 ft
< 800m
< 200 ft
Symbols :   Thunderstorms  Fog  Heavy snow  Heavy precipitations  Wind > 20 kt
SIGMETs :     Misc.  Thunderstorms  Icing  Turbulence  Mountain Waves  Volcanic Ashes







- Airport Elevation : 485 ft
- IATA code : QSA


LELL - Sabadell

CURRENT METAR :
  • 261230Z 12012KT 080V160 CAVOK 24/16 Q1016

EXPIRED METARs :
  • 261200Z 11012KT 080V140 CAVOK 24/15 Q1016
  • 261130Z 11011KT 080V150 CAVOK 25/16 Q1016
  • 261100Z 12011KT 080V150 CAVOK 25/15 Q1016
  • 261030Z 13010KT 080V160 CAVOK 25/15 Q1016
  • 261000Z 12007KT 080V150 CAVOK 25/16 Q1016

TAF TAF LELL
Valid from the 26 at 09:00 until the 27 at 09:00 UTC


260800Z 2609/2709 VRB03KT 9999 FEW030 TX28/2613Z TN15/2706Z
BECMG 2609/2611 13010KT
BECMG 2619/2622 VRB03KT
PROB30
TEMPO 2624/2703 2000 BR BKN005
No reported NOTAMs for that airfield.



MET'MAP, your aeronautical weather chart ! - Copyright ORBIFLY December 2007 - Disclaimer

ORBIFLY MET'MAP TEAM :

Programming & Development : Alexandra Zaïnal
Concept & Development : Baudouin d'Aumeries
Co-Development & Prog : Marc-Olivier Méhu
Technical & hardware support : Manuel Goepfert

Contact : metmap@orbifly.com




SOURCES & CREDITS :

   NOAA